sensor_id;sensor_type;location;lat;lon;timestamp;P1;durP1;ratioP1;P2;durP2;ratioP2
16792;SDS011;8513;42.662;23.350;2023-05-20T00:02:07;6.22;;;5.43;;
16792;SDS011;8513;42.662;23.350;2023-05-20T00:04:33;8.20;;;5.78;;
16792;SDS011;8513;42.662;23.350;2023-05-20T00:06:58;7.53;;;5.60;;
16792;SDS011;8513;42.662;23.350;2023-05-20T00:09:23;6.65;;;5.95;;
16792;SDS011;8513;42.662;23.350;2023-05-20T00:11:49;6.57;;;5.80;;
16792;SDS011;8513;42.662;23.350;2023-05-20T00:14:14;7.65;;;6.45;;
16792;SDS011;8513;42.662;23.350;2023-05-20T00:16:40;6.53;;;5.82;;
16792;SDS011;8513;42.662;23.350;2023-05-20T00:19:05;6.25;;;5.47;;
16792;SDS011;8513;42.662;23.350;2023-05-20T00:21:31;7.85;;;5.43;;
16792;SDS011;8513;42.662;23.350;2023-05-20T00:23:57;7.32;;;5.70;;
16792;SDS011;8513;42.662;23.350;2023-05-20T00:26:23;7.18;;;6.13;;
16792;SDS011;8513;42.662;23.350;2023-05-20T00:28:49;7.47;;;5.93;;
16792;SDS011;8513;42.662;23.350;2023-05-20T00:31:14;8.23;;;5.45;;
16792;SDS011;8513;42.662;23.350;2023-05-20T00:33:40;7.63;;;6.40;;
16792;SDS011;8513;42.662;23.350;2023-05-20T00:36:05;6.90;;;5.72;;
16792;SDS011;8513;42.662;23.350;2023-05-20T00:38:30;6.40;;;5.45;;
16792;SDS011;8513;42.662;23.350;2023-05-20T00:40:57;8.25;;;5.75;;
16792;SDS011;8513;42.662;23.350;2023-05-20T00:43:22;5.93;;;5.32;;
16792;SDS011;8513;42.662;23.350;2023-05-20T00:45:50;7.75;;;5.68;;
16792;SDS011;8513;42.662;23.350;2023-05-20T00:48:17;7.30;;;6.47;;
16792;SDS011;8513;42.662;23.350;2023-05-20T00:50:43;9.52;;;6.00;;
16792;SDS011;8513;42.662;23.350;2023-05-20T00:53:08;8.38;;;6.32;;
16792;SDS011;8513;42.662;23.350;2023-05-20T00:55:34;9.13;;;6.15;;
16792;SDS011;8513;42.662;23.350;2023-05-20T00:57:59;8.25;;;6.30;;
16792;SDS011;8513;42.662;23.350;2023-05-20T01:00:25;6.22;;;5.55;;
16792;SDS011;8513;42.662;23.350;2023-05-20T01:02:50;7.85;;;5.43;;
16792;SDS011;8513;42.662;23.350;2023-05-20T01:05:16;7.75;;;5.50;;
16792;SDS011;8513;42.662;23.350;2023-05-20T01:07:41;7.15;;;5.70;;
16792;SDS011;8513;42.662;23.350;2023-05-20T01:10:07;6.07;;;5.43;;
16792;SDS011;8513;42.662;23.350;2023-05-20T01:15:04;6.38;;;4.65;;
16792;SDS011;8513;42.662;23.350;2023-05-20T01:17:33;5.30;;;4.80;;
16792;SDS011;8513;42.662;23.350;2023-05-20T01:20:03;7.18;;;5.22;;
16792;SDS011;8513;42.662;23.350;2023-05-20T01:22:31;8.20;;;5.75;;
16792;SDS011;8513;42.662;23.350;2023-05-20T01:24:57;7.43;;;5.18;;
16792;SDS011;8513;42.662;23.350;2023-05-20T01:27:22;6.60;;;5.75;;
16792;SDS011;8513;42.662;23.350;2023-05-20T01:29:48;6.78;;;5.35;;
16792;SDS011;8513;42.662;23.350;2023-05-20T01:32:22;6.30;;;4.93;;
16792;SDS011;8513;42.662;23.350;2023-05-20T01:34:51;8.57;;;5.95;;
16792;SDS011;8513;42.662;23.350;2023-05-20T01:37:18;7.53;;;6.00;;
16792;SDS011;8513;42.662;23.350;2023-05-20T01:39:44;8.93;;;6.03;;
16792;SDS011;8513;42.662;23.350;2023-05-20T01:42:11;7.90;;;5.68;;
16792;SDS011;8513;42.662;23.350;2023-05-20T01:44:39;7.35;;;6.15;;
16792;SDS011;8513;42.662;23.350;2023-05-20T01:47:05;8.13;;;6.40;;
16792;SDS011;8513;42.662;23.350;2023-05-20T01:49:31;6.05;;;5.00;;
16792;SDS011;8513;42.662;23.350;2023-05-20T01:51:56;6.95;;;5.95;;
16792;SDS011;8513;42.662;23.350;2023-05-20T01:54:22;9.95;;;6.45;;
16792;SDS011;8513;42.662;23.350;2023-05-20T01:56:48;7.13;;;6.22;;
16792;SDS011;8513;42.662;23.350;2023-05-20T01:59:14;7.25;;;6.03;;
16792;SDS011;8513;42.662;23.350;2023-05-20T02:01:39;7.38;;;5.82;;
16792;SDS011;8513;42.662;23.350;2023-05-20T02:04:05;6.93;;;5.50;;
16792;SDS011;8513;42.662;23.350;2023-05-20T02:06:30;6.65;;;5.70;;
16792;SDS011;8513;42.662;23.350;2023-05-20T02:08:55;6.82;;;4.75;;
16792;SDS011;8513;42.662;23.350;2023-05-20T02:11:21;7.25;;;5.03;;
16792;SDS011;8513;42.662;23.350;2023-05-20T02:13:47;6.40;;;4.95;;
16792;SDS011;8513;42.662;23.350;2023-05-20T02:16:13;5.93;;;5.05;;
16792;SDS011;8513;42.662;23.350;2023-05-20T02:18:39;8.48;;;5.65;;
16792;SDS011;8513;42.662;23.350;2023-05-20T02:21:06;6.20;;;5.18;;
16792;SDS011;8513;42.662;23.350;2023-05-20T02:23:32;5.93;;;4.88;;
16792;SDS011;8513;42.662;23.350;2023-05-20T02:25:58;5.97;;;5.05;;
16792;SDS011;8513;42.662;23.350;2023-05-20T02:28:23;5.78;;;3.95;;
16792;SDS011;8513;42.662;23.350;2023-05-20T02:30:49;5.50;;;4.97;;
16792;SDS011;8513;42.662;23.350;2023-05-20T02:33:17;5.05;;;4.13;;
16792;SDS011;8513;42.662;23.350;2023-05-20T02:35:44;6.25;;;4.88;;
16792;SDS011;8513;42.662;23.350;2023-05-20T02:38:10;5.30;;;4.20;;
16792;SDS011;8513;42.662;23.350;2023-05-20T02:40:36;5.15;;;4.65;;
16792;SDS011;8513;42.662;23.350;2023-05-20T02:43:02;4.97;;;4.22;;
16792;SDS011;8513;42.662;23.350;2023-05-20T02:45:28;5.53;;;4.78;;
16792;SDS011;8513;42.662;23.350;2023-05-20T02:47:53;5.50;;;4.88;;
16792;SDS011;8513;42.662;23.350;2023-05-20T02:50:19;5.88;;;4.63;;
16792;SDS011;8513;42.662;23.350;2023-05-20T02:52:44;7.80;;;4.72;;
16792;SDS011;8513;42.662;23.350;2023-05-20T02:55:10;5.30;;;4.78;;
16792;SDS011;8513;42.662;23.350;2023-05-20T02:57:36;6.18;;;4.88;;
16792;SDS011;8513;42.662;23.350;2023-05-20T03:00:05;5.72;;;4.97;;
16792;SDS011;8513;42.662;23.350;2023-05-20T03:02:35;7.07;;;4.95;;
16792;SDS011;8513;42.662;23.350;2023-05-20T03:05:00;6.35;;;5.20;;
16792;SDS011;8513;42.662;23.350;2023-05-20T03:07:26;6.82;;;5.32;;
16792;SDS011;8513;42.662;23.350;2023-05-20T03:09:52;7.35;;;5.97;;
16792;SDS011;8513;42.662;23.350;2023-05-20T03:12:17;8.52;;;5.30;;
16792;SDS011;8513;42.662;23.350;2023-05-20T03:14:43;6.68;;;4.90;;
16792;SDS011;8513;42.662;23.350;2023-05-20T03:17:08;6.20;;;5.60;;
16792;SDS011;8513;42.662;23.350;2023-05-20T03:19:35;5.68;;;5.07;;
16792;SDS011;8513;42.662;23.350;2023-05-20T03:22:01;8.32;;;5.30;;
16792;SDS011;8513;42.662;23.350;2023-05-20T03:24:27;6.00;;;5.10;;
16792;SDS011;8513;42.662;23.350;2023-05-20T03:26:52;7.38;;;5.22;;
16792;SDS011;8513;42.662;23.350;2023-05-20T03:29:18;8.45;;;5.75;;
16792;SDS011;8513;42.662;23.350;2023-05-20T03:31:43;6.75;;;5.55;;
16792;SDS011;8513;42.662;23.350;2023-05-20T03:34:09;6.72;;;5.85;;
16792;SDS011;8513;42.662;23.350;2023-05-20T03:36:34;7.00;;;5.45;;
16792;SDS011;8513;42.662;23.350;2023-05-20T03:39:00;6.35;;;5.15;;
16792;SDS011;8513;42.662;23.350;2023-05-20T03:41:26;6.97;;;5.57;;
16792;SDS011;8513;42.662;23.350;2023-05-20T03:43:52;7.88;;;5.43;;
16792;SDS011;8513;42.662;23.350;2023-05-20T03:46:17;7.18;;;6.20;;
16792;SDS011;8513;42.662;23.350;2023-05-20T03:48:43;7.30;;;6.20;;
16792;SDS011;8513;42.662;23.350;2023-05-20T03:51:08;8.00;;;5.60;;
16792;SDS011;8513;42.662;23.350;2023-05-20T03:53:34;8.73;;;6.03;;
16792;SDS011;8513;42.662;23.350;2023-05-20T03:55:59;8.10;;;6.38;;
16792;SDS011;8513;42.662;23.350;2023-05-20T03:58:25;7.60;;;5.47;;
16792;SDS011;8513;42.662;23.350;2023-05-20T04:00:52;7.85;;;6.10;;
16792;SDS011;8513;42.662;23.350;2023-05-20T04:03:18;8.75;;;6.00;;
16792;SDS011;8513;42.662;23.350;2023-05-20T04:05:43;6.75;;;5.53;;
16792;SDS011;8513;42.662;23.350;2023-05-20T04:08:09;7.32;;;5.95;;
16792;SDS011;8513;42.662;23.350;2023-05-20T04:10:37;9.00;;;5.40;;
16792;SDS011;8513;42.662;23.350;2023-05-20T04:13:05;7.68;;;5.35;;
16792;SDS011;8513;42.662;23.350;2023-05-20T04:15:33;6.65;;;5.43;;
16792;SDS011;8513;42.662;23.350;2023-05-20T04:17:59;6.05;;;4.68;;
16792;SDS011;8513;42.662;23.350;2023-05-20T04:20:25;6.45;;;5.25;;
16792;SDS011;8513;42.662;23.350;2023-05-20T04:22:51;6.45;;;4.03;;
16792;SDS011;8513;42.662;23.350;2023-05-20T04:25:18;6.85;;;4.13;;
16792;SDS011;8513;42.662;23.350;2023-05-20T04:27:43;5.20;;;4.60;;
16792;SDS011;8513;42.662;23.350;2023-05-20T04:30:09;5.90;;;3.97;;
16792;SDS011;8513;42.662;23.350;2023-05-20T04:32:35;5.57;;;4.68;;
16792;SDS011;8513;42.662;23.350;2023-05-20T04:35:01;4.82;;;4.25;;
16792;SDS011;8513;42.662;23.350;2023-05-20T04:37:27;6.07;;;4.82;;
16792;SDS011;8513;42.662;23.350;2023-05-20T04:39:53;6.13;;;4.55;;
16792;SDS011;8513;42.662;23.350;2023-05-20T04:42:18;6.00;;;4.95;;
16792;SDS011;8513;42.662;23.350;2023-05-20T04:44:45;5.53;;;4.95;;
16792;SDS011;8513;42.662;23.350;2023-05-20T04:47:12;6.50;;;5.07;;
16792;SDS011;8513;42.662;23.350;2023-05-20T04:49:38;5.65;;;4.50;;
16792;SDS011;8513;42.662;23.350;2023-05-20T04:52:04;6.38;;;5.40;;
16792;SDS011;8513;42.662;23.350;2023-05-20T04:54:29;7.60;;;4.75;;
16792;SDS011;8513;42.662;23.350;2023-05-20T04:56:57;7.05;;;5.25;;
16792;SDS011;8513;42.662;23.350;2023-05-20T04:59:22;8.75;;;5.95;;
16792;SDS011;8513;42.662;23.350;2023-05-20T05:01:48;6.07;;;5.15;;
16792;SDS011;8513;42.662;23.350;2023-05-20T05:04:14;6.53;;;5.32;;
16792;SDS011;8513;42.662;23.350;2023-05-20T05:06:39;6.40;;;5.13;;
16792;SDS011;8513;42.662;23.350;2023-05-20T05:09:05;5.90;;;5.30;;
16792;SDS011;8513;42.662;23.350;2023-05-20T05:11:31;6.15;;;5.40;;
16792;SDS011;8513;42.662;23.350;2023-05-20T05:13:58;7.40;;;5.22;;
16792;SDS011;8513;42.662;23.350;2023-05-20T05:16:23;7.05;;;5.90;;
16792;SDS011;8513;42.662;23.350;2023-05-20T05:18:49;6.63;;;5.65;;
16792;SDS011;8513;42.662;23.350;2023-05-20T05:21:14;6.10;;;5.30;;
16792;SDS011;8513;42.662;23.350;2023-05-20T05:23:40;7.22;;;5.20;;
16792;SDS011;8513;42.662;23.350;2023-05-20T05:26:06;7.28;;;5.50;;
16792;SDS011;8513;42.662;23.350;2023-05-20T05:28:32;6.75;;;5.30;;
16792;SDS011;8513;42.662;23.350;2023-05-20T05:30:57;7.10;;;5.72;;
16792;SDS011;8513;42.662;23.350;2023-05-20T05:33:23;8.40;;;6.20;;
16792;SDS011;8513;42.662;23.350;2023-05-20T05:35:48;8.07;;;6.55;;
16792;SDS011;8513;42.662;23.350;2023-05-20T05:38:15;8.30;;;6.20;;
16792;SDS011;8513;42.662;23.350;2023-05-20T05:40:40;7.82;;;6.03;;
16792;SDS011;8513;42.662;23.350;2023-05-20T05:43:06;6.47;;;5.88;;
16792;SDS011;8513;42.662;23.350;2023-05-20T05:45:31;7.18;;;6.30;;
16792;SDS011;8513;42.662;23.350;2023-05-20T05:47:57;6.68;;;5.97;;
16792;SDS011;8513;42.662;23.350;2023-05-20T05:50:22;5.95;;;4.97;;
16792;SDS011;8513;42.662;23.350;2023-05-20T05:52:48;6.07;;;5.30;;
16792;SDS011;8513;42.662;23.350;2023-05-20T05:55:13;6.45;;;5.45;;
16792;SDS011;8513;42.662;23.350;2023-05-20T05:57:39;7.32;;;5.97;;
16792;SDS011;8513;42.662;23.350;2023-05-20T06:00:04;6.65;;;5.72;;
16792;SDS011;8513;42.662;23.350;2023-05-20T06:02:30;5.80;;;4.78;;
16792;SDS011;8513;42.662;23.350;2023-05-20T06:05:00;7.00;;;5.28;;
16792;SDS011;8513;42.662;23.350;2023-05-20T06:07:26;5.85;;;5.25;;
16792;SDS011;8513;42.662;23.350;2023-05-20T06:09:53;6.72;;;5.10;;
16792;SDS011;8513;42.662;23.350;2023-05-20T06:12:18;6.45;;;5.13;;
16792;SDS011;8513;42.662;23.350;2023-05-20T06:14:44;6.40;;;5.43;;
16792;SDS011;8513;42.662;23.350;2023-05-20T06:17:09;7.43;;;4.95;;
16792;SDS011;8513;42.662;23.350;2023-05-20T06:19:35;5.60;;;4.45;;
16792;SDS011;8513;42.662;23.350;2023-05-20T06:22:00;5.40;;;4.90;;
16792;SDS011;8513;42.662;23.350;2023-05-20T06:24:25;6.00;;;5.40;;
16792;SDS011;8513;42.662;23.350;2023-05-20T06:26:51;5.47;;;4.90;;
16792;SDS011;8513;42.662;23.350;2023-05-20T06:29:17;5.07;;;4.57;;
16792;SDS011;8513;42.662;23.350;2023-05-20T06:31:42;5.18;;;4.68;;
16792;SDS011;8513;42.662;23.350;2023-05-20T06:34:07;6.65;;;4.65;;
16792;SDS011;8513;42.662;23.350;2023-05-20T06:36:33;5.57;;;4.68;;
16792;SDS011;8513;42.662;23.350;2023-05-20T06:38:58;5.35;;;4.05;;
16792;SDS011;8513;42.662;23.350;2023-05-20T06:41:24;4.82;;;4.18;;
16792;SDS011;8513;42.662;23.350;2023-05-20T06:43:50;6.45;;;4.43;;
16792;SDS011;8513;42.662;23.350;2023-05-20T06:46:16;4.55;;;4.13;;
16792;SDS011;8513;42.662;23.350;2023-05-20T06:48:41;4.82;;;4.25;;
16792;SDS011;8513;42.662;23.350;2023-05-20T06:51:07;5.45;;;4.25;;
16792;SDS011;8513;42.662;23.350;2023-05-20T06:53:35;4.60;;;3.95;;
16792;SDS011;8513;42.662;23.350;2023-05-20T06:56:01;4.78;;;4.20;;
16792;SDS011;8513;42.662;23.350;2023-05-20T06:58:27;4.15;;;3.25;;
16792;SDS011;8513;42.662;23.350;2023-05-20T07:00:53;3.95;;;3.30;;
16792;SDS011;8513;42.662;23.350;2023-05-20T07:03:18;3.65;;;2.92;;
16792;SDS011;8513;42.662;23.350;2023-05-20T07:05:44;3.35;;;3.05;;
16792;SDS011;8513;42.662;23.350;2023-05-20T07:08:09;3.97;;;3.38;;
16792;SDS011;8513;42.662;23.350;2023-05-20T07:10:35;3.80;;;3.47;;
16792;SDS011;8513;42.662;23.350;2023-05-20T07:13:01;3.72;;;3.30;;
16792;SDS011;8513;42.662;23.350;2023-05-20T07:15:26;3.67;;;3.38;;
16792;SDS011;8513;42.662;23.350;2023-05-20T07:17:52;5.00;;;3.80;;
16792;SDS011;8513;42.662;23.350;2023-05-20T07:20:17;3.50;;;3.20;;
16792;SDS011;8513;42.662;23.350;2023-05-20T07:22:43;4.05;;;3.38;;
16792;SDS011;8513;42.662;23.350;2023-05-20T07:25:09;3.75;;;3.28;;
16792;SDS011;8513;42.662;23.350;2023-05-20T07:27:34;4.05;;;3.38;;
16792;SDS011;8513;42.662;23.350;2023-05-20T07:30:00;4.55;;;3.50;;
16792;SDS011;8513;42.662;23.350;2023-05-20T07:32:25;4.15;;;3.35;;
16792;SDS011;8513;42.662;23.350;2023-05-20T07:34:51;4.22;;;3.63;;
16792;SDS011;8513;42.662;23.350;2023-05-20T07:37:16;4.10;;;3.50;;
16792;SDS011;8513;42.662;23.350;2023-05-20T07:39:42;3.88;;;3.33;;
16792;SDS011;8513;42.662;23.350;2023-05-20T07:42:07;4.40;;;3.83;;
16792;SDS011;8513;42.662;23.350;2023-05-20T07:44:33;3.78;;;3.35;;
16792;SDS011;8513;42.662;23.350;2023-05-20T07:46:58;3.85;;;3.42;;
16792;SDS011;8513;42.662;23.350;2023-05-20T07:49:24;4.40;;;3.63;;
16792;SDS011;8513;42.662;23.350;2023-05-20T07:51:50;3.75;;;3.22;;
16792;SDS011;8513;42.662;23.350;2023-05-20T07:54:16;4.10;;;3.55;;
16792;SDS011;8513;42.662;23.350;2023-05-20T07:56:41;4.40;;;3.72;;
16792;SDS011;8513;42.662;23.350;2023-05-20T07:59:07;3.92;;;3.50;;
16792;SDS011;8513;42.662;23.350;2023-05-20T08:01:32;3.63;;;3.33;;
16792;SDS011;8513;42.662;23.350;2023-05-20T08:03:58;4.90;;;3.80;;
16792;SDS011;8513;42.662;23.350;2023-05-20T08:06:24;4.30;;;3.65;;
16792;SDS011;8513;42.662;23.350;2023-05-20T08:08:49;4.25;;;3.40;;
16792;SDS011;8513;42.662;23.350;2023-05-20T08:11:15;6.25;;;3.75;;
16792;SDS011;8513;42.662;23.350;2023-05-20T08:13:40;4.68;;;3.92;;
16792;SDS011;8513;42.662;23.350;2023-05-20T08:16:06;4.68;;;4.05;;
16792;SDS011;8513;42.662;23.350;2023-05-20T08:18:33;4.30;;;3.90;;
16792;SDS011;8513;42.662;23.350;2023-05-20T08:21:01;4.38;;;3.97;;
16792;SDS011;8513;42.662;23.350;2023-05-20T08:23:27;5.93;;;4.10;;
16792;SDS011;8513;42.662;23.350;2023-05-20T08:25:53;5.10;;;3.63;;
16792;SDS011;8513;42.662;23.350;2023-05-20T08:28:18;5.65;;;4.50;;
16792;SDS011;8513;42.662;23.350;2023-05-20T08:30:44;4.78;;;4.28;;
16792;SDS011;8513;42.662;23.350;2023-05-20T08:33:11;4.22;;;3.80;;
16792;SDS011;8513;42.662;23.350;2023-05-20T08:35:37;4.82;;;3.78;;
16792;SDS011;8513;42.662;23.350;2023-05-20T08:38:04;4.80;;;4.28;;
16792;SDS011;8513;42.662;23.350;2023-05-20T08:40:30;4.63;;;3.67;;
16792;SDS011;8513;42.662;23.350;2023-05-20T08:42:58;4.13;;;3.72;;
16792;SDS011;8513;42.662;23.350;2023-05-20T08:45:25;4.38;;;3.50;;
16792;SDS011;8513;42.662;23.350;2023-05-20T08:47:53;4.60;;;3.92;;
16792;SDS011;8513;42.662;23.350;2023-05-20T08:50:18;3.78;;;3.38;;
16792;SDS011;8513;42.662;23.350;2023-05-20T08:52:45;3.90;;;3.50;;
16792;SDS011;8513;42.662;23.350;2023-05-20T08:55:16;4.22;;;3.83;;
16792;SDS011;8513;42.662;23.350;2023-05-20T08:57:50;4.95;;;4.00;;
16792;SDS011;8513;42.662;23.350;2023-05-20T09:00:15;4.82;;;4.10;;
16792;SDS011;8513;42.662;23.350;2023-05-20T09:02:43;5.65;;;3.90;;
16792;SDS011;8513;42.662;23.350;2023-05-20T09:05:10;4.32;;;3.92;;
16792;SDS011;8513;42.662;23.350;2023-05-20T09:07:36;4.22;;;3.75;;
16792;SDS011;8513;42.662;23.350;2023-05-20T09:10:01;6.10;;;4.15;;
16792;SDS011;8513;42.662;23.350;2023-05-20T09:12:28;4.75;;;4.05;;
16792;SDS011;8513;42.662;23.350;2023-05-20T09:14:53;4.22;;;3.83;;
16792;SDS011;8513;42.662;23.350;2023-05-20T09:17:20;4.20;;;3.75;;
16792;SDS011;8513;42.662;23.350;2023-05-20T09:19:48;4.10;;;3.70;;
16792;SDS011;8513;42.662;23.350;2023-05-20T09:22:20;4.90;;;4.25;;
16792;SDS011;8513;42.662;23.350;2023-05-20T09:24:47;4.20;;;3.80;;
16792;SDS011;8513;42.662;23.350;2023-05-20T09:27:12;4.00;;;3.60;;
16792;SDS011;8513;42.662;23.350;2023-05-20T09:29:38;5.60;;;4.28;;
16792;SDS011;8513;42.662;23.350;2023-05-20T09:32:03;4.15;;;3.75;;
16792;SDS011;8513;42.662;23.350;2023-05-20T09:34:29;4.18;;;3.80;;
16792;SDS011;8513;42.662;23.350;2023-05-20T09:36:55;4.50;;;3.63;;
16792;SDS011;8513;42.662;23.350;2023-05-20T09:39:24;5.13;;;3.92;;
16792;SDS011;8513;42.662;23.350;2023-05-20T09:41:55;4.18;;;3.78;;
16792;SDS011;8513;42.662;23.350;2023-05-20T09:44:38;4.57;;;4.18;;
16792;SDS011;8513;42.662;23.350;2023-05-20T09:47:05;4.20;;;3.78;;
16792;SDS011;8513;42.662;23.350;2023-05-20T09:49:31;4.28;;;3.88;;
16792;SDS011;8513;42.662;23.350;2023-05-20T09:51:59;4.03;;;3.67;;
16792;SDS011;8513;42.662;23.350;2023-05-20T09:54:26;4.72;;;4.22;;
16792;SDS011;8513;42.662;23.350;2023-05-20T09:56:53;4.07;;;3.67;;
16792;SDS011;8513;42.662;23.350;2023-05-20T09:59:21;4.20;;;3.80;;
16792;SDS011;8513;42.662;23.350;2023-05-20T10:01:47;4.53;;;4.10;;
16792;SDS011;8513;42.662;23.350;2023-05-20T10:04:13;4.00;;;3.60;;
16792;SDS011;8513;42.662;23.350;2023-05-20T10:12:57;3.60;;;3.30;;
16792;SDS011;8513;42.662;23.350;2023-05-20T10:21:23;4.18;;;3.88;;
16792;SDS011;8513;42.662;23.350;2023-05-20T10:23:49;4.10;;;3.30;;
16792;SDS011;8513;42.662;23.350;2023-05-20T10:26:18;3.85;;;3.42;;
16792;SDS011;8513;42.662;23.350;2023-05-20T10:28:45;3.33;;;2.97;;
16792;SDS011;8513;42.662;23.350;2023-05-20T10:31:15;3.15;;;2.78;;
16792;SDS011;8513;42.662;23.350;2023-05-20T10:33:47;2.78;;;2.58;;
16792;SDS011;8513;42.662;23.350;2023-05-20T10:38:51;4.78;;;3.25;;
16792;SDS011;8513;42.662;23.350;2023-05-20T10:41:19;3.08;;;2.88;;
16792;SDS011;8513;42.662;23.350;2023-05-20T10:43:45;3.30;;;2.88;;
16792;SDS011;8513;42.662;23.350;2023-05-20T10:46:16;2.80;;;2.60;;
16792;SDS011;8513;42.662;23.350;2023-05-20T10:48:42;3.38;;;2.90;;
16792;SDS011;8513;42.662;23.350;2023-05-20T10:51:12;4.10;;;2.95;;
16792;SDS011;8513;42.662;23.350;2023-05-20T10:53:39;3.42;;;3.13;;
16792;SDS011;8513;42.662;23.350;2023-05-20T10:56:18;2.90;;;2.70;;
16792;SDS011;8513;42.662;23.350;2023-05-20T10:58:45;3.13;;;2.75;;
16792;SDS011;8513;42.662;23.350;2023-05-20T11:01:12;2.85;;;2.65;;
16792;SDS011;8513;42.662;23.350;2023-05-20T11:03:42;2.97;;;2.67;;
16792;SDS011;8513;42.662;23.350;2023-05-20T11:06:12;2.95;;;2.75;;
16792;SDS011;8513;42.662;23.350;2023-05-20T11:08:38;3.47;;;3.17;;
16792;SDS011;8513;42.662;23.350;2023-05-20T11:11:04;3.42;;;3.13;;
16792;SDS011;8513;42.662;23.350;2023-05-20T11:13:30;3.13;;;2.83;;
16792;SDS011;8513;42.662;23.350;2023-05-20T11:15:55;3.60;;;3.30;;
16792;SDS011;8513;42.662;23.350;2023-05-20T11:18:23;3.83;;;2.80;;
16792;SDS011;8513;42.662;23.350;2023-05-20T11:20:54;4.07;;;3.10;;
16792;SDS011;8513;42.662;23.350;2023-05-20T11:23:20;3.45;;;3.15;;
16792;SDS011;8513;42.662;23.350;2023-05-20T11:25:48;3.35;;;3.05;;
16792;SDS011;8513;42.662;23.350;2023-05-20T11:28:15;3.25;;;3.03;;
16792;SDS011;8513;42.662;23.350;2023-05-20T11:30:41;3.10;;;2.80;;
16792;SDS011;8513;42.662;23.350;2023-05-20T11:33:10;3.33;;;3.03;;
16792;SDS011;8513;42.662;23.350;2023-05-20T11:35:37;3.55;;;3.25;;
16792;SDS011;8513;42.662;23.350;2023-05-20T11:38:09;3.28;;;2.97;;
16792;SDS011;8513;42.662;23.350;2023-05-20T11:40:35;3.47;;;3.13;;
16792;SDS011;8513;42.662;23.350;2023-05-20T11:43:01;3.67;;;3.13;;
16792;SDS011;8513;42.662;23.350;2023-05-20T11:45:38;3.70;;;3.38;;
16792;SDS011;8513;42.662;23.350;2023-05-20T11:48:05;3.30;;;2.97;;
16792;SDS011;8513;42.662;23.350;2023-05-20T11:50:35;3.75;;;3.45;;
16792;SDS011;8513;42.662;23.350;2023-05-20T11:53:03;3.65;;;3.35;;
16792;SDS011;8513;42.662;23.350;2023-05-20T11:55:30;3.35;;;3.05;;
16792;SDS011;8513;42.662;23.350;2023-05-20T11:57:57;4.10;;;3.55;;
16792;SDS011;8513;42.662;23.350;2023-05-20T12:00:24;3.58;;;3.28;;
16792;SDS011;8513;42.662;23.350;2023-05-20T12:02:49;4.82;;;3.10;;
16792;SDS011;8513;42.662;23.350;2023-05-20T12:05:15;3.53;;;2.88;;
16792;SDS011;8513;42.662;23.350;2023-05-20T12:07:41;3.45;;;3.15;;
16792;SDS011;8513;42.662;23.350;2023-05-20T12:10:07;3.50;;;3.20;;
16792;SDS011;8513;42.662;23.350;2023-05-20T12:12:32;3.22;;;2.92;;
16792;SDS011;8513;42.662;23.350;2023-05-20T12:15:00;3.47;;;3.17;;
16792;SDS011;8513;42.662;23.350;2023-05-20T12:17:26;4.13;;;3.78;;
16792;SDS011;8513;42.662;23.350;2023-05-20T12:19:51;4.03;;;3.20;;
16792;SDS011;8513;42.662;23.350;2023-05-20T12:22:17;3.63;;;3.33;;
16792;SDS011;8513;42.662;23.350;2023-05-20T12:24:42;3.17;;;2.97;;
16792;SDS011;8513;42.662;23.350;2023-05-20T12:27:08;3.75;;;3.40;;
16792;SDS011;8513;42.662;23.350;2023-05-20T12:29:34;3.20;;;2.90;;
16792;SDS011;8513;42.662;23.350;2023-05-20T12:31:59;2.67;;;2.47;;
16792;SDS011;8513;42.662;23.350;2023-05-20T12:34:25;4.50;;;2.47;;
16792;SDS011;8513;42.662;23.350;2023-05-20T12:36:50;2.30;;;2.10;;
16792;SDS011;8513;42.662;23.350;2023-05-20T12:39:16;2.33;;;2.13;;
16792;SDS011;8513;42.662;23.350;2023-05-20T12:41:42;2.33;;;2.13;;
16792;SDS011;8513;42.662;23.350;2023-05-20T12:44:08;3.30;;;2.53;;
16792;SDS011;8513;42.662;23.350;2023-05-20T12:46:34;2.13;;;1.92;;
16792;SDS011;8513;42.662;23.350;2023-05-20T12:49:04;2.50;;;2.30;;
16792;SDS011;8513;42.662;23.350;2023-05-20T12:51:29;2.50;;;2.30;;
16792;SDS011;8513;42.662;23.350;2023-05-20T12:53:55;2.45;;;2.25;;
16792;SDS011;8513;42.662;23.350;2023-05-20T12:56:20;2.50;;;2.30;;
16792;SDS011;8513;42.662;23.350;2023-05-20T12:58:46;2.50;;;2.30;;
16792;SDS011;8513;42.662;23.350;2023-05-20T13:01:11;2.85;;;2.42;;
16792;SDS011;8513;42.662;23.350;2023-05-20T13:03:37;2.50;;;2.30;;
16792;SDS011;8513;42.662;23.350;2023-05-20T13:06:02;2.70;;;2.50;;
16792;SDS011;8513;42.662;23.350;2023-05-20T13:08:28;2.83;;;2.60;;
16792;SDS011;8513;42.662;23.350;2023-05-20T13:10:54;2.42;;;2.22;;
16792;SDS011;8513;42.662;23.350;2023-05-20T13:13:19;2.97;;;2.38;;
16792;SDS011;8513;42.662;23.350;2023-05-20T13:15:48;2.42;;;2.22;;
16792;SDS011;8513;42.662;23.350;2023-05-20T13:18:14;2.80;;;2.20;;
16792;SDS011;8513;42.662;23.350;2023-05-20T13:20:43;2.65;;;2.45;;
16792;SDS011;8513;42.662;23.350;2023-05-20T13:23:09;3.05;;;2.80;;
16792;SDS011;8513;42.662;23.350;2023-05-20T13:25:34;2.80;;;2.60;;
16792;SDS011;8513;42.662;23.350;2023-05-20T13:28:01;2.65;;;2.45;;
16792;SDS011;8513;42.662;23.350;2023-05-20T13:30:27;3.05;;;2.80;;
16792;SDS011;8513;42.662;23.350;2023-05-20T13:32:53;2.70;;;2.50;;
16792;SDS011;8513;42.662;23.350;2023-05-20T13:35:18;3.38;;;3.08;;
16792;SDS011;8513;42.662;23.350;2023-05-20T13:37:44;2.72;;;2.53;;
16792;SDS011;8513;42.662;23.350;2023-05-20T13:40:10;2.70;;;2.50;;
16792;SDS011;8513;42.662;23.350;2023-05-20T13:42:36;3.50;;;3.20;;
16792;SDS011;8513;42.662;23.350;2023-05-20T13:45:02;2.85;;;2.65;;
16792;SDS011;8513;42.662;23.350;2023-05-20T13:47:27;3.20;;;2.58;;
16792;SDS011;8513;42.662;23.350;2023-05-20T13:49:53;4.50;;;3.25;;
16792;SDS011;8513;42.662;23.350;2023-05-20T13:52:18;3.08;;;2.63;;
16792;SDS011;8513;42.662;23.350;2023-05-20T13:54:44;2.80;;;2.42;;
16792;SDS011;8513;42.662;23.350;2023-05-20T13:57:11;3.00;;;2.40;;
16792;SDS011;8513;42.662;23.350;2023-05-20T13:59:37;2.70;;;2.50;;
16792;SDS011;8513;42.662;23.350;2023-05-20T14:02:02;2.80;;;2.50;;
16792;SDS011;8513;42.662;23.350;2023-05-20T14:04:28;3.00;;;2.70;;
16792;SDS011;8513;42.662;23.350;2023-05-20T14:06:55;2.72;;;2.53;;
16792;SDS011;8513;42.662;23.350;2023-05-20T14:09:20;3.25;;;2.20;;
16792;SDS011;8513;42.662;23.350;2023-05-20T14:11:46;3.55;;;2.75;;
16792;SDS011;8513;42.662;23.350;2023-05-20T14:14:11;2.83;;;2.63;;
16792;SDS011;8513;42.662;23.350;2023-05-20T14:16:37;2.65;;;2.45;;
16792;SDS011;8513;42.662;23.350;2023-05-20T14:19:03;3.72;;;2.75;;
16792;SDS011;8513;42.662;23.350;2023-05-20T14:21:29;3.30;;;3.00;;
16792;SDS011;8513;42.662;23.350;2023-05-20T14:23:56;3.00;;;2.70;;
16792;SDS011;8513;42.662;23.350;2023-05-20T14:26:22;3.30;;;3.00;;
16792;SDS011;8513;42.662;23.350;2023-05-20T14:28:48;2.60;;;2.40;;
16792;SDS011;8513;42.662;23.350;2023-05-20T14:31:13;2.78;;;2.50;;
16792;SDS011;8513;42.662;23.350;2023-05-20T14:33:39;3.22;;;2.83;;
16792;SDS011;8513;42.662;23.350;2023-05-20T14:36:04;3.35;;;3.05;;
16792;SDS011;8513;42.662;23.350;2023-05-20T14:38:30;3.50;;;3.20;;
16792;SDS011;8513;42.662;23.350;2023-05-20T14:40:56;3.25;;;2.95;;
16792;SDS011;8513;42.662;23.350;2023-05-20T14:43:21;3.40;;;3.10;;
16792;SDS011;8513;42.662;23.350;2023-05-20T14:45:46;3.40;;;3.10;;
16792;SDS011;8513;42.662;23.350;2023-05-20T14:48:12;3.28;;;3.05;;
16792;SDS011;8513;42.662;23.350;2023-05-20T14:50:38;6.90;;;3.65;;
16792;SDS011;8513;42.662;23.350;2023-05-20T14:53:03;3.83;;;3.08;;
16792;SDS011;8513;42.662;23.350;2023-05-20T14:55:29;3.90;;;3.58;;
16792;SDS011;8513;42.662;23.350;2023-05-20T14:57:54;3.50;;;3.20;;
16792;SDS011;8513;42.662;23.350;2023-05-20T15:00:20;3.88;;;3.58;;